createdAt,value
2023-03-12T00:00:11.472Z,99068.63
2023-03-12T00:02:41.631Z,99067.81
2023-03-12T00:05:11.635Z,99062.78
2023-03-12T00:07:40.279Z,99060.28
2023-03-12T00:10:10.813Z,99060.34
2023-03-12T00:12:39.970Z,99061.25
2023-03-12T00:15:10.551Z,99058.91
2023-03-12T00:17:40.569Z,99054.94
2023-03-12T00:20:12.044Z,99054.94
2023-03-12T00:22:41.426Z,99065.22
2023-03-12T00:25:15.052Z,99057.75
2023-03-12T00:27:44.104Z,99057.75
2023-03-12T00:30:16.800Z,99061.13
2023-03-12T00:32:47.189Z,99056.94
2023-03-12T00:35:15.938Z,99077.38
2023-03-12T00:37:44.705Z,99073.34
2023-03-12T00:40:15.255Z,99070.81
2023-03-12T00:42:44.009Z,99070.81
2023-03-12T00:45:13.142Z,99065.75
2023-03-12T00:47:42.048Z,99057.25
2023-03-12T00:50:12.942Z,99069.03
2023-03-12T00:52:41.609Z,99063.09
2023-03-12T00:55:10.874Z,99053.72
2023-03-12T00:57:39.510Z,99060.41
2023-03-12T01:00:10.807Z,99062.06
2023-03-12T01:02:40.576Z,99057.81
2023-03-12T01:05:14.023Z,99057.97
2023-03-12T01:07:43.135Z,99070.75
2023-03-12T01:10:15.726Z,99070.06
2023-03-12T01:12:46.263Z,99065.22
2023-03-12T01:15:17.601Z,99062.75
2023-03-12T01:17:46.308Z,99054.31
2023-03-12T01:20:16.461Z,99060.25
2023-03-12T01:22:45.436Z,99043.47
2023-03-12T01:25:14.506Z,99044.28
2023-03-12T01:27:43.179Z,99054.53
2023-03-12T01:30:13.636Z,99056.19
2023-03-12T01:32:42.455Z,99056.94
2023-03-12T01:35:11.902Z,99056.13
2023-03-12T01:37:41.967Z,99054.41
2023-03-12T01:40:16.564Z,99056.06
2023-03-12T01:42:45.254Z,99060.97
2023-03-12T01:46:15.739Z,99065.88
2023-03-12T01:48:49.596Z,99070.06
2023-03-12T01:51:20.552Z,99058.97
2023-03-12T01:53:55.359Z,99060.56
2023-03-12T01:56:28.393Z,99052.09
2023-03-12T01:59:05.120Z,99047.91
2023-03-12T02:01:34.527Z,99042.94
2023-03-12T02:04:03.788Z,99035.41
2023-03-12T02:06:39.446Z,99030.56
2023-03-12T02:09:09.992Z,99032.28
2023-03-12T02:11:38.641Z,99034.88
2023-03-12T02:14:07.529Z,99030.00
2023-03-12T02:16:36.372Z,99030.06
2023-03-12T02:19:13.524Z,99026.81
2023-03-12T02:21:42.278Z,99022.72
2023-03-12T02:24:23.981Z,99020.25
2023-03-12T02:27:13.690Z,99019.34
2023-03-12T02:29:45.170Z,99017.56
2023-03-12T02:32:23.209Z,99021.69
2023-03-12T02:34:52.781Z,99024.06
2023-03-12T02:37:21.837Z,99017.25
2023-03-12T02:39:57.435Z,99018.06
2023-03-12T02:42:28.063Z,99022.16
2023-03-12T02:44:56.864Z,99022.16
2023-03-12T02:47:26.509Z,99012.13
2023-03-12T02:49:55.979Z,99007.13
2023-03-12T02:52:24.738Z,99010.41
2023-03-12T02:54:53.407Z,99005.28
2023-03-12T02:57:22.105Z,99003.59
2023-03-12T02:59:52.119Z,99009.44
2023-03-12T03:02:20.784Z,99011.91
2023-03-12T03:04:49.618Z,99010.94
2023-03-12T03:07:18.324Z,99015.13
2023-03-12T03:09:47.009Z,99015.06
2023-03-12T03:12:15.794Z,99013.25
2023-03-12T03:14:44.834Z,99012.44
2023-03-12T03:17:14.899Z,99008.19
2023-03-12T03:19:43.518Z,99012.38
2023-03-12T03:22:12.358Z,99003.16
2023-03-12T03:24:41.111Z,99001.38
2023-03-12T03:27:10.081Z,98993.78
2023-03-12T03:29:38.775Z,98996.47
2023-03-12T03:32:08.267Z,98988.19
2023-03-12T03:34:39.095Z,98990.72
2023-03-12T03:37:08.001Z,98995.78
2023-03-12T03:39:37.266Z,98988.25
2023-03-12T03:42:06.573Z,98997.53
2023-03-12T03:44:35.949Z,98992.47
2023-03-12T03:47:04.681Z,98986.41
2023-03-12T03:49:33.676Z,98982.09
2023-03-12T03:52:03.791Z,98972.69
2023-03-12T03:54:36.847Z,98971.72
2023-03-12T03:57:07.534Z,98975.78
2023-03-12T03:59:36.251Z,98974.91
2023-03-12T04:02:04.944Z,98985.03
2023-03-12T04:04:36.971Z,98992.84
2023-03-12T04:07:07.568Z,98999.59
2023-03-12T04:09:36.343Z,98994.59
2023-03-12T04:12:05.535Z,98999.59
2023-03-12T04:14:41.787Z,99000.50
2023-03-12T04:17:11.717Z,98999.59
2023-03-12T04:19:40.377Z,98995.22
2023-03-12T04:22:10.388Z,98991.81
2023-03-12T04:24:39.178Z,98992.69
2023-03-12T04:27:08.337Z,98989.34
2023-03-12T04:29:39.182Z,98985.19
2023-03-12T04:32:08.530Z,98986.81
2023-03-12T04:34:38.177Z,98990.16
2023-03-12T04:37:07.087Z,98989.34
2023-03-12T04:39:37.251Z,98988.50
2023-03-12T04:42:06.035Z,98983.38
2023-03-12T04:44:35.472Z,98979.16
2023-03-12T04:47:05.781Z,98975.78
2023-03-12T04:49:35.375Z,98977.50
2023-03-12T04:52:04.070Z,98976.63
2023-03-12T04:54:33.453Z,98971.56
2023-03-12T04:57:04.250Z,98974.19
2023-03-12T04:59:33.072Z,98969.84
2023-03-12T05:02:02.014Z,98971.34
2023-03-12T05:04:33.689Z,98972.13
2023-03-12T05:07:02.615Z,98963.66
2023-03-12T05:09:31.531Z,98967.72
2023-03-12T05:12:00.567Z,98960.88
2023-03-12T05:14:30.774Z,98951.47
2023-03-12T05:16:59.485Z,98959.78
2023-03-12T05:19:28.325Z,98957.25
2023-03-12T05:21:56.971Z,98965.78
2023-03-12T05:24:25.806Z,98957.56
2023-03-12T05:26:54.524Z,98966.81
2023-03-12T05:29:25.756Z,98955.03
2023-03-12T05:31:57.304Z,98958.44
2023-03-12T05:34:26.186Z,98955.91
2023-03-12T05:36:54.816Z,98956.78
2023-03-12T05:39:26.958Z,98950.09
2023-03-12T05:41:58.944Z,98961.13
2023-03-12T05:44:29.185Z,98958.44
2023-03-12T05:46:59.349Z,98953.22
2023-03-12T05:49:29.169Z,98959.78
2023-03-12T05:51:59.997Z,98967.22
2023-03-12T05:54:29.230Z,98964.59
2023-03-12T05:56:58.170Z,98963.72
2023-03-12T05:59:28.517Z,98967.91
2023-03-12T06:01:59.438Z,98966.19
2023-03-12T06:04:28.930Z,98971.22
2023-03-12T06:06:57.758Z,98963.72
2023-03-12T06:09:26.461Z,98961.28
2023-03-12T06:11:56.083Z,98965.53
2023-03-12T06:14:24.859Z,98969.63
2023-03-12T06:16:53.704Z,98976.28
2023-03-12T06:19:23.821Z,98978.91
2023-03-12T06:21:52.610Z,98973.03
2023-03-12T06:24:21.699Z,98971.31
2023-03-12T06:27:01.351Z,98976.28
2023-03-12T06:29:30.008Z,98966.09
2023-03-12T06:31:58.614Z,98960.94
2023-03-12T06:34:28.678Z,98969.34
2023-03-12T06:36:57.334Z,98966.75
2023-03-12T06:39:26.032Z,98964.13
2023-03-12T06:41:54.704Z,98967.44
2023-03-12T06:44:23.575Z,98967.44
2023-03-12T06:46:52.320Z,98969.97
2023-03-12T06:49:21.051Z,98967.44
2023-03-12T06:51:51.223Z,98969.88
2023-03-12T06:54:19.915Z,98961.56
2023-03-12T06:56:48.576Z,98950.44
2023-03-12T06:59:18.411Z,98957.16
2023-03-12T07:01:47.064Z,98957.91
2023-03-12T07:04:15.679Z,98950.31
2023-03-12T07:06:44.359Z,98951.97
2023-03-12T07:09:14.375Z,98944.38
2023-03-12T07:11:42.962Z,98943.53
2023-03-12T07:14:11.657Z,98946.91
2023-03-12T07:16:40.332Z,98946.91
2023-03-12T07:19:08.959Z,98951.13
2023-03-12T07:21:37.666Z,98953.59
2023-03-12T07:24:08.313Z,98956.03
2023-03-12T07:26:38.369Z,98942.41
2023-03-12T07:29:06.959Z,98943.19
2023-03-12T07:31:35.672Z,98951.41
2023-03-12T07:34:06.261Z,98952.34
2023-03-12T07:36:35.352Z,98959.94
2023-03-12T07:39:04.586Z,98950.53
2023-03-12T07:41:33.277Z,98940.28
2023-03-12T07:44:03.353Z,98942.56
2023-03-12T07:46:32.126Z,98944.06
2023-03-12T07:49:00.903Z,98947.19
2023-03-12T07:51:29.662Z,98941.22
2023-03-12T07:53:58.405Z,98938.56
2023-03-12T07:56:27.237Z,98926.63
2023-03-12T07:58:56.524Z,98929.91
2023-03-12T08:01:32.101Z,98936.63
2023-03-12T08:04:04.369Z,98940.84
2023-03-12T08:06:33.202Z,98938.31
2023-03-12T08:09:01.949Z,98943.47
2023-03-12T08:11:31.193Z,98946.00
2023-03-12T08:13:59.852Z,98949.31
2023-03-12T08:16:30.000Z,98946.75
2023-03-12T08:18:58.726Z,98944.94
2023-03-12T08:21:27.382Z,98944.06
2023-03-12T08:23:55.985Z,98950.00
2023-03-12T08:26:24.710Z,98947.41
2023-03-12T08:28:53.407Z,98957.44
2023-03-12T08:31:22.690Z,98959.91
2023-03-12T08:33:52.776Z,98950.59
2023-03-12T08:36:22.606Z,98953.94
2023-03-12T08:38:51.435Z,98959.84
2023-03-12T08:41:21.666Z,98948.00
2023-03-12T08:43:50.456Z,98952.09
2023-03-12T08:46:19.412Z,98944.50
2023-03-12T08:48:49.094Z,98945.28
2023-03-12T08:51:19.117Z,98951.13
2023-03-12T08:53:47.847Z,98944.31
2023-03-12T08:56:16.623Z,98947.69
2023-03-12T08:58:45.260Z,98938.28
2023-03-12T09:01:15.052Z,98941.63
2023-03-12T09:03:43.766Z,98937.41
2023-03-12T09:06:16.929Z,98933.16
2023-03-12T09:08:49.320Z,98933.91
2023-03-12T09:11:18.086Z,98939.78
2023-03-12T09:16:35.577Z,98923.44
2023-03-12T09:19:04.559Z,98926.72
2023-03-12T09:21:33.328Z,98932.53
2023-03-12T09:24:03.349Z,98938.34
2023-03-12T09:26:32.075Z,98939.16
2023-03-12T09:29:00.852Z,98937.38
2023-03-12T09:31:29.495Z,98938.19
2023-03-12T09:33:58.173Z,98935.47
2023-03-12T09:36:26.903Z,98941.31
2023-03-12T09:38:56.242Z,98942.94
2023-03-12T09:41:30.601Z,98945.47
2023-03-12T09:44:05.819Z,98950.47
2023-03-12T09:46:40.215Z,98952.91
2023-03-12T09:49:18.531Z,98957.91
2023-03-12T09:51:52.548Z,98951.94
2023-03-12T09:54:29.633Z,98954.41
2023-03-12T09:57:10.408Z,98950.22
2023-03-12T09:59:39.104Z,98965.34
2023-03-12T10:02:38.412Z,98960.19
2023-03-12T10:05:11.168Z,98952.59
2023-03-12T10:07:46.814Z,98953.25
2023-03-12T10:10:37.986Z,98952.28
2023-03-12T10:13:32.287Z,98969.06
2023-03-12T10:16:15.916Z,98963.81
2023-03-12T10:19:04.656Z,98963.59
2023-03-12T10:21:42.683Z,98965.00
2023-03-12T10:24:34.903Z,98966.56
2023-03-12T10:27:03.825Z,98978.16
2023-03-12T10:29:38.542Z,98979.63
2023-03-12T10:32:16.703Z,98975.22
2023-03-12T10:34:49.271Z,98974.91
2023-03-12T10:37:24.311Z,98981.44
2023-03-12T10:39:55.527Z,98982.13
2023-03-12T10:42:26.826Z,98970.06
2023-03-12T10:45:08.190Z,98961.41
2023-03-12T10:47:39.013Z,98964.59
2023-03-12T10:50:19.989Z,98971.13
2023-03-12T10:52:50.524Z,98960.81
2023-03-12T10:55:26.403Z,98967.38
2023-03-12T10:57:55.628Z,98956.16
2023-03-12T11:00:29.622Z,98951.81
2023-03-12T11:03:03.533Z,98956.72
2023-03-12T11:05:35.482Z,98966.72
2023-03-12T11:08:05.818Z,98964.06
2023-03-12T11:10:45.359Z,98971.47
2023-03-12T11:13:35.309Z,98974.75
2023-03-12T11:16:26.906Z,98964.44
2023-03-12T11:18:57.656Z,98968.53
2023-03-12T11:21:26.408Z,98970.91
2023-03-12T11:24:11.444Z,98977.53
2023-03-12T11:26:51.104Z,98978.16
2023-03-12T11:29:29.691Z,98988.25
2023-03-12T11:32:08.022Z,98990.63
2023-03-12T11:34:40.462Z,98990.53
2023-03-12T11:37:16.709Z,98984.56
2023-03-12T11:40:09.943Z,98973.41
2023-03-12T11:43:29.234Z,98970.88
2023-03-12T11:46:19.528Z,98970.78
2023-03-12T11:49:07.783Z,98967.97
2023-03-12T11:51:48.643Z,98980.50
2023-03-12T11:54:47.562Z,98982.88
2023-03-12T11:57:29.423Z,98973.34
2023-03-12T12:00:12.723Z,98979.09
2023-03-12T12:03:09.393Z,98979.75
2023-03-12T12:05:50.022Z,98962.69
2023-03-12T12:08:39.257Z,98969.22
2023-03-12T12:11:17.055Z,98964.78
2023-03-12T12:14:01.199Z,98944.28
2023-03-12T12:16:55.800Z,98949.94
2023-03-12T12:19:44.850Z,98939.50
2023-03-12T12:22:32.832Z,98946.03
2023-03-12T12:25:26.936Z,98935.53
2023-03-12T12:28:29.675Z,98935.16
2023-03-12T12:31:16.737Z,98923.84
2023-03-12T12:34:03.129Z,98921.81
2023-03-12T12:36:36.086Z,98919.72
2023-03-12T12:39:15.266Z,98916.75
2023-03-12T12:41:51.422Z,98924.00
2023-03-12T12:44:25.574Z,98918.53
2023-03-12T12:47:01.319Z,98918.19
2023-03-12T12:49:37.923Z,98907.63
2023-03-12T12:52:09.657Z,98912.34
2023-03-12T12:54:53.001Z,98903.34
2023-03-12T12:57:28.315Z,98908.97
2023-03-12T13:00:16.648Z,98913.78
2023-03-12T13:02:48.512Z,98910.13
2023-03-12T13:05:24.551Z,98916.59
2023-03-12T13:07:53.263Z,98908.66
2023-03-12T13:10:57.558Z,98911.75
2023-03-12T13:13:33.969Z,98913.28
2023-03-12T13:16:36.623Z,98908.78
2023-03-12T13:19:24.121Z,98911.16
2023-03-12T13:22:07.356Z,98911.78
2023-03-12T13:24:45.036Z,98914.94
2023-03-12T13:27:21.646Z,98901.22
2023-03-12T13:29:56.859Z,98902.66
2023-03-12T13:33:06.149Z,98901.66
2023-03-12T13:35:38.948Z,98903.09
2023-03-12T13:38:13.454Z,98883.41
2023-03-12T13:41:03.210Z,98884.94
2023-03-12T13:43:54.560Z,98877.22
2023-03-12T13:46:42.405Z,98873.75
2023-03-12T13:49:22.212Z,98877.84
2023-03-12T13:52:09.503Z,98881.91
2023-03-12T13:54:45.501Z,98879.28
2023-03-12T13:57:26.787Z,98865.63
2023-03-12T13:59:59.020Z,98865.41
2023-03-12T14:02:32.364Z,98867.88
2023-03-12T14:05:10.683Z,98883.88
2023-03-12T14:08:02.997Z,98879.47
2023-03-12T14:10:41.443Z,98872.56
2023-03-12T14:13:29.936Z,98868.19
2023-03-12T14:16:07.621Z,98872.25
2023-03-12T14:18:38.778Z,98858.50
2023-03-12T14:21:11.830Z,98855.75
2023-03-12T14:23:46.015Z,98870.13
2023-03-12T14:26:21.670Z,98859.03
2023-03-12T14:29:00.228Z,98861.47
2023-03-12T14:31:31.740Z,98860.56
2023-03-12T14:34:05.554Z,98866.34
2023-03-12T14:36:42.164Z,98865.44
2023-03-12T14:39:22.032Z,98870.44
2023-03-12T14:41:57.483Z,98862.69
2023-03-12T14:44:28.787Z,98855.88
2023-03-12T14:47:01.394Z,98846.50
2023-03-12T14:49:32.662Z,98842.19
2023-03-12T14:52:01.303Z,98833.66
2023-03-12T14:54:30.545Z,98831.81
2023-03-12T14:56:59.219Z,98829.28
2023-03-12T14:59:31.162Z,98823.25
2023-03-12T15:02:09.078Z,98829.97
2023-03-12T15:04:38.094Z,98826.63
2023-03-12T15:07:11.408Z,98825.72
2023-03-12T15:09:44.568Z,98822.34
2023-03-12T15:12:22.667Z,98826.50
2023-03-12T15:14:55.720Z,98831.63
2023-03-12T15:17:30.246Z,98838.34
2023-03-12T15:19:59.701Z,98829.06
2023-03-12T15:22:29.166Z,98826.41
2023-03-12T15:25:02.977Z,98834.84
2023-03-12T15:27:35.555Z,98836.50
2023-03-12T15:30:25.264Z,98837.31
2023-03-12T15:33:13.807Z,98832.22
2023-03-12T15:35:47.949Z,98838.13
2023-03-12T15:38:18.118Z,98827.03
2023-03-12T15:40:51.810Z,98815.91
2023-03-12T15:43:23.425Z,98817.53
2023-03-12T15:46:00.477Z,98819.16
2023-03-12T15:48:35.078Z,98825.06
2023-03-12T15:51:04.143Z,98824.16
2023-03-12T15:53:35.269Z,98836.91
2023-03-12T15:56:09.461Z,98829.97
2023-03-12T15:58:41.189Z,98834.13
2023-03-12T16:01:13.083Z,98829.88
2023-03-12T16:03:45.609Z,98836.59
2023-03-12T16:06:16.515Z,98844.25
2023-03-12T16:08:48.358Z,98837.41
2023-03-12T16:11:19.758Z,98831.41
2023-03-12T16:13:50.176Z,98836.41
2023-03-12T16:16:19.357Z,98849.94
2023-03-12T16:18:49.504Z,98844.84
2023-03-12T16:21:18.188Z,98841.38
2023-03-12T16:23:47.319Z,98838.03
2023-03-12T16:26:16.386Z,98837.09
2023-03-12T16:28:45.675Z,98839.63
2023-03-12T16:31:15.752Z,98832.81
2023-03-12T16:33:45.082Z,98836.97
2023-03-12T16:36:19.293Z,98841.28
2023-03-12T16:38:48.788Z,98835.25
2023-03-12T16:41:19.601Z,98840.38
2023-03-12T16:43:51.569Z,98835.25
2023-03-12T16:46:22.492Z,98831.81
2023-03-12T16:48:54.266Z,98848.69
2023-03-12T16:51:24.946Z,98852.19
2023-03-12T16:54:07.461Z,98854.75
2023-03-12T16:56:39.800Z,98846.25
2023-03-12T16:59:17.236Z,98848.81
2023-03-12T17:01:46.040Z,98861.56
2023-03-12T17:04:14.712Z,98857.28
2023-03-12T17:06:44.840Z,98867.50
2023-03-12T17:09:13.480Z,98864.00
2023-03-12T17:11:42.276Z,98863.19
2023-03-12T17:14:19.647Z,98876.75
2023-03-12T17:16:48.340Z,98882.78
2023-03-12T17:19:17.112Z,98884.38
2023-03-12T17:21:48.204Z,98894.59
2023-03-12T17:24:17.031Z,98892.03
2023-03-12T17:26:46.524Z,98902.13
2023-03-12T17:29:15.246Z,98908.97
2023-03-12T17:31:43.957Z,98916.63
2023-03-12T17:34:12.695Z,98915.81
2023-03-12T17:36:41.502Z,98922.50
2023-03-12T17:39:12.143Z,98931.91
2023-03-12T17:41:40.866Z,98916.63
2023-03-12T17:44:10.164Z,98919.16
2023-03-12T17:46:47.004Z,98927.63
2023-03-12T17:49:22.354Z,98925.06
2023-03-12T17:51:51.040Z,98925.91
2023-03-12T17:54:22.079Z,98920.81
2023-03-12T17:56:50.736Z,98923.34
2023-03-12T17:59:19.426Z,98933.56
2023-03-12T18:01:48.133Z,98927.63
2023-03-12T18:04:16.889Z,98938.66
2023-03-12T18:06:45.596Z,98934.34
2023-03-12T18:09:14.249Z,98937.78
2023-03-12T18:11:44.849Z,98940.22
2023-03-12T18:14:13.568Z,98944.47
2023-03-12T18:16:42.229Z,98942.75
2023-03-12T18:19:11.262Z,98948.66
2023-03-12T18:21:39.900Z,98953.75
2023-03-12T18:24:14.165Z,98946.94
2023-03-12T18:26:45.352Z,98944.41
2023-03-12T18:29:14.171Z,98933.25
2023-03-12T18:31:42.992Z,98935.00
2023-03-12T18:34:11.712Z,98944.28
2023-03-12T18:36:40.332Z,98944.28
2023-03-12T18:39:09.807Z,98934.91
2023-03-12T18:41:40.361Z,98933.16
2023-03-12T18:44:13.124Z,98933.16
2023-03-12T18:46:41.883Z,98931.44
2023-03-12T18:49:12.382Z,98927.16
2023-03-12T18:51:41.048Z,98931.34
2023-03-12T18:54:09.632Z,98928.78
2023-03-12T18:56:40.898Z,98922.78
2023-03-12T18:59:13.097Z,98930.44
2023-03-12T19:01:41.787Z,98928.69
2023-03-12T19:04:11.422Z,98930.31
2023-03-12T19:06:50.089Z,98934.59
2023-03-12T19:09:19.877Z,98937.97
2023-03-12T19:11:48.618Z,98936.22
2023-03-12T19:14:18.800Z,98937.06
2023-03-12T19:16:47.549Z,98947.25
2023-03-12T19:19:17.090Z,98945.50
2023-03-12T19:21:49.477Z,98948.06
2023-03-12T19:24:18.149Z,98945.50
2023-03-12T19:26:46.915Z,98947.25
2023-03-12T19:29:16.969Z,98953.97
2023-03-12T19:31:45.755Z,98953.16
2023-03-12T19:34:14.572Z,98956.50
2023-03-12T19:36:43.277Z,98953.16
2023-03-12T19:39:21.123Z,98949.69
2023-03-12T19:41:50.907Z,98951.31
2023-03-12T19:44:20.948Z,98948.84
2023-03-12T19:46:49.638Z,98948.06
2023-03-12T19:49:18.279Z,98956.41
2023-03-12T19:51:46.930Z,98961.50
2023-03-12T19:54:15.587Z,98949.59
2023-03-12T19:56:44.354Z,98954.59
2023-03-12T19:59:13.033Z,98949.47
2023-03-12T20:01:43.046Z,98950.28
2023-03-12T20:04:11.759Z,98949.38
2023-03-12T20:06:40.742Z,98946.03
2023-03-12T20:09:09.876Z,98957.03
2023-03-12T20:11:38.673Z,98954.38
2023-03-12T20:14:07.428Z,98954.38
2023-03-12T20:16:36.243Z,98945.81
2023-03-12T20:19:06.412Z,98944.06
2023-03-12T20:21:35.163Z,98950.81
2023-03-12T20:24:05.159Z,98941.44
2023-03-12T20:26:33.917Z,98942.25
2023-03-12T20:29:03.015Z,98941.34
2023-03-12T20:31:31.853Z,98943.88
2023-03-12T20:34:00.714Z,98939.47
2023-03-12T20:36:31.469Z,98947.13
2023-03-12T20:39:00.213Z,98938.66
2023-03-12T20:41:28.903Z,98939.38
2023-03-12T20:43:58.619Z,98941.81
2023-03-12T20:46:27.684Z,98941.00
2023-03-12T20:48:56.898Z,98926.50
2023-03-12T20:51:25.894Z,98927.34
2023-03-12T20:53:55.900Z,98923.97
2023-03-12T20:56:24.671Z,98926.44
2023-03-12T20:58:53.844Z,98917.03
2023-03-12T21:01:22.592Z,98912.72
2023-03-12T21:03:51.279Z,98916.13
2023-03-12T21:06:20.052Z,98910.19
2023-03-12T21:08:49.016Z,98914.38
2023-03-12T21:11:19.075Z,98918.56
2023-03-12T21:13:50.102Z,98915.91
2023-03-12T21:16:18.752Z,98903.16
2023-03-12T21:18:47.370Z,98898.84
2023-03-12T21:21:16.278Z,98900.59
2023-03-12T21:23:45.587Z,98896.31
2023-03-12T21:26:14.507Z,98898.84
2023-03-12T21:28:44.668Z,98901.41
2023-03-12T21:31:16.228Z,98904.78
2023-03-12T21:33:45.021Z,98899.69
2023-03-12T21:36:15.813Z,98905.59
2023-03-12T21:38:44.567Z,98905.59
2023-03-12T21:41:16.056Z,98904.69
2023-03-12T21:43:47.357Z,98899.59
2023-03-12T21:46:19.282Z,98901.34
2023-03-12T21:48:49.343Z,98901.22
2023-03-12T21:51:19.708Z,98897.03
2023-03-12T21:53:48.450Z,98884.28
2023-03-12T21:56:17.022Z,98875.72
2023-03-12T21:58:46.995Z,98875.81
2023-03-12T22:01:18.143Z,98871.53
2023-03-12T22:03:47.991Z,98864.69
2023-03-12T22:06:17.697Z,98863.06
2023-03-12T22:08:49.274Z,98857.97
2023-03-12T22:11:18.075Z,98850.31
2023-03-12T22:13:48.156Z,98847.78
2023-03-12T22:16:17.315Z,98841.84
2023-03-12T22:18:47.326Z,98851.13
2023-03-12T22:21:18.887Z,98843.47
2023-03-12T22:23:48.228Z,98839.28
2023-03-12T22:26:17.431Z,98824.81
2023-03-12T22:28:51.455Z,98823.97
2023-03-12T22:31:21.716Z,98826.53
2023-03-12T22:33:53.419Z,98823.97
2023-03-12T22:36:22.879Z,98825.72
2023-03-12T22:38:51.749Z,98823.97
2023-03-12T22:41:23.359Z,98819.72
2023-03-12T22:43:55.851Z,98819.72
2023-03-12T22:46:27.552Z,98823.97
2023-03-12T22:48:58.808Z,98823.97
2023-03-12T22:51:29.069Z,98834.19
2023-03-12T22:53:57.745Z,98818.88
2023-03-12T22:56:26.535Z,98823.97
2023-03-12T22:58:56.788Z,98817.16
2023-03-12T23:01:25.864Z,98822.16
2023-03-12T23:03:55.107Z,98806.84
2023-03-12T23:06:26.285Z,98806.00
2023-03-12T23:08:55.848Z,98803.34
2023-03-12T23:11:26.261Z,98803.34
2023-03-12T23:13:56.833Z,98799.09
2023-03-12T23:16:27.271Z,98807.53
2023-03-12T23:18:57.241Z,98812.53
2023-03-12T23:21:26.864Z,98811.72
2023-03-12T23:23:55.778Z,98808.25
2023-03-12T23:26:27.690Z,98813.38
2023-03-12T23:29:00.114Z,98809.06
2023-03-12T23:31:30.344Z,98801.31
2023-03-12T23:33:59.506Z,98803.84
2023-03-12T23:36:28.570Z,98800.38
2023-03-12T23:38:57.554Z,98792.72
2023-03-12T23:41:29.496Z,98796.91
2023-03-12T23:44:00.571Z,98789.25
2023-03-12T23:46:29.718Z,98788.31
2023-03-12T23:48:58.869Z,98784.97
2023-03-12T23:51:29.440Z,98778.13
2023-03-12T23:54:00.269Z,98779.06
2023-03-12T23:56:34.408Z,98775.56
2023-03-12T23:59:05.678Z,98768.88
